Time;durP1;ratioP1;P1;durP2;ratioP2;P2;SDS_P1;SDS_P2;PMS_P1;PMS_P2;Temp;Humidity;BMP_temperature;BMP_pressure;BME280_temperature;BME280_humidity;BME280_pressure;Samples;Min_cycle;Max_cycle;Signal;HPM_P1;HPM_P2
2022/11/14 00:00:28;;;;;;;9.40;7.28;;;;;;;5.79;100.00;101950.38;5076809;28;20085;-70
2022/11/14 00:02:53;;;;;;;16.65;7.95;;;;;;;5.68;100.00;101940.56;5057213;28;20043;-70
2022/11/14 00:05:20;;;;;;;14.85;9.48;;;;;;;5.78;100.00;101944.31;5078016;28;20483;-70
2022/11/14 00:07:46;;;;;;;14.82;12.43;;;;;;;5.81;100.00;101937.19;5077446;28;20143;-70
2022/11/14 00:10:13;;;;;;;9.82;8.93;;;;;;;5.74;100.00;101919.22;5059170;28;20407;-70
2022/11/14 00:12:38;;;;;;;15.40;8.80;;;;;;;5.82;100.00;101928.44;5075698;28;20124;-70
2022/11/14 00:15:04;;;;;;;14.75;9.18;;;;;;;5.92;100.00;101916.44;5076146;28;20535;-70
2022/11/14 00:17:29;;;;;;;14.85;9.82;;;;;;;5.91;100.00;101917.38;5056413;28;20495;-70
2022/11/14 00:19:55;;;;;;;9.68;8.68;;;;;;;5.92;100.00;101929.53;5076598;28;20388;-70
2022/11/14 00:22:20;;;;;;;12.60;7.68;;;;;;;5.86;100.00;101901.09;5077913;28;20488;-70
2022/11/14 00:24:45;;;;;;;11.20;9.70;;;;;;;5.92;100.00;101900.72;5043072;28;20024;-70
2022/11/14 00:27:11;;;;;;;18.27;11.02;;;;;;;5.99;100.00;101904.69;5040918;28;20027;-70
2022/11/14 00:29:37;;;;;;;13.85;7.57;;;;;;;5.99;100.00;101888.97;5077653;28;20028;-70
2022/11/14 00:32:03;;;;;;;24.90;13.07;;;;;;;5.86;100.00;101880.16;5075010;28;20036;-72
2022/11/14 00:34:28;;;;;;;16.27;9.80;;;;;;;6.06;100.00;101895.50;5042582;28;20507;-72
2022/11/14 00:36:54;;;;;;;25.25;10.43;;;;;;;6.07;100.00;101891.09;5076577;28;20032;-72
2022/11/14 00:39:19;;;;;;;16.67;7.80;;;;;;;6.10;100.00;101878.66;5057829;28;20028;-72
2022/11/14 00:41:44;;;;;;;9.88;7.32;;;;;;;6.09;100.00;101884.81;5076223;28;20452;-72
2022/11/14 00:44:10;;;;;;;12.07;8.30;;;;;;;5.94;100.00;101839.47;5058135;28;20373;-72
2022/11/14 00:46:36;;;;;;;12.43;7.00;;;;;;;6.03;100.00;101851.16;5043456;28;20442;-72
2022/11/14 00:49:01;;;;;;;14.43;8.50;;;;;;;6.07;100.00;101875.38;5076730;28;20077;-72
2022/11/14 00:51:26;;;;;;;16.80;9.70;;;;;;;6.05;100.00;101867.59;5074571;28;20032;-72
2022/11/14 00:53:52;;;;;;;12.38;8.40;;;;;;;5.99;100.00;101852.28;5074401;28;20025;-72
2022/11/14 00:56:17;;;;;;;14.18;8.95;;;;;;;5.97;100.00;101848.91;5076559;28;20381;-71
2022/11/14 00:58:43;;;;;;;16.33;10.55;;;;;;;6.00;100.00;101840.00;5075351;28;20101;-71
2022/11/14 01:01:08;;;;;;;25.42;13.07;;;;;;;5.83;100.00;101825.31;5072832;28;20028;-71
2022/11/14 01:03:33;;;;;;;18.55;10.52;;;;;;;5.83;100.00;101815.66;5024856;28;20395;-71
2022/11/14 01:06:05;;;;;;;16.40;10.60;;;;;;;5.96;100.00;101834.13;5042233;28;20024;-71
2022/11/14 01:08:31;;;;;;;12.75;8.43;;;;;;;5.96;100.00;101832.31;5076282;28;20032;-71
2022/11/14 01:10:57;;;;;;;13.35;9.20;;;;;;;5.97;100.00;101835.81;5074909;28;20111;-70
2022/11/14 01:13:23;;;;;;;19.77;11.10;;;;;;;5.84;100.00;101806.03;5076512;28;20040;-70
2022/11/14 01:15:49;;;;;;;16.13;9.68;;;;;;;5.93;100.00;101821.19;5041315;28;20389;-70
2022/11/14 01:18:17;;;;;;;21.65;11.13;;;;;;;5.99;100.00;101820.84;5055753;28;20039;-71
2022/11/14 01:20:45;;;;;;;15.23;9.55;;;;;;;5.92;100.00;101815.09;5059058;28;20111;-71
2022/11/14 01:23:12;;;;;;;14.48;9.98;;;;;;;5.91;100.00;101812.56;5074944;28;20031;-71
2022/11/14 01:25:39;;;;;;;16.58;9.07;;;;;;;5.93;100.00;101816.78;5075155;28;20040;-71
2022/11/14 01:28:10;;;;;;;24.35;11.02;;;;;;;5.89;100.00;101809.22;5075750;28;20028;-71
2022/11/14 01:30:36;;;;;;;17.35;10.85;;;;;;;5.86;100.00;101806.78;5073129;28;20442;-71
2022/11/14 01:33:01;;;;;;;14.80;9.00;;;;;;;5.82;100.00;101807.91;5072506;28;20028;-70
2022/11/14 01:35:27;;;;;;;16.73;10.40;;;;;;;5.73;100.00;101799.69;5073979;28;20506;-70
2022/11/14 01:37:53;;;;;;;17.52;10.18;;;;;;;5.62;100.00;101775.94;5042606;28;20040;-70
2022/11/14 01:40:18;;;;;;;16.35;10.55;;;;;;;5.76;100.00;101794.25;5057624;28;20114;-70
2022/11/14 01:43:17;;;;;;;14.68;8.52;;;;;;;5.73;100.00;101789.22;5075274;28;20172;-70
2022/11/14 01:46:22;;;;;;;13.30;9.93;;;;;;;5.74;100.00;101787.44;5075867;28;20081;-70
2022/11/14 01:48:55;;;;;;;19.23;8.60;;;;;;;5.73;100.00;101781.34;4975192;28;20042;-70
2022/11/14 01:51:30;;;;;;;16.27;8.95;;;;;;;5.73;100.00;101776.13;4975218;28;20522;-70
2022/11/14 01:53:57;;;;;;;15.82;9.50;;;;;;;5.74;100.00;101772.53;4975354;28;20068;-70
2022/11/14 01:56:37;;;;;;;20.27;11.95;;;;;;;5.76;100.00;101761.97;4975643;28;20026;-70
2022/11/14 01:59:08;;;;;;;20.95;12.95;;;;;;;5.75;100.00;101761.16;4975583;28;20042;-70
2022/11/14 02:01:40;;;;;;;29.05;13.35;;;;;;;5.77;100.00;101754.03;4973554;28;20034;-70
2022/11/14 02:04:05;;;;;;;;;;;;;;;5.71;100.00;101743.94;4975675;28;20030;-70
2022/11/14 02:06:31;;;;;;;26.42;14.27;;;;;;;5.75;100.00;101748.03;4974941;28;19925;-70
2022/11/14 02:09:00;;;;;;;20.65;12.07;;;;;;;5.71;100.00;101733.47;4988426;28;20042;-70
2022/11/14 02:11:30;;;;;;;13.75;11.63;;;;;;;5.66;100.00;101721.56;4976424;28;20518;-70
2022/11/14 02:13:57;;;;;;;17.48;10.07;;;;;;;5.63;100.00;101719.16;4975604;28;20031;-70
2022/11/14 02:16:24;;;;;;;18.83;10.70;;;;;;;5.70;100.00;101726.53;4990780;28;20035;-70
2022/11/14 02:18:49;;;;;;;14.32;10.52;;;;;;;5.67;100.00;101726.72;4975605;28;20038;-70
2022/11/14 02:21:14;;;;;;;23.42;10.05;;;;;;;5.66;100.00;101725.06;4972517;28;20101;-70
2022/11/14 02:23:40;;;;;;;13.80;9.98;;;;;;;5.63;100.00;101721.78;4991954;28;20040;-70
2022/11/14 02:26:05;;;;;;;19.00;12.05;;;;;;;5.55;100.00;101717.00;5041596;28;20039;-70
2022/11/14 02:28:30;;;;;;;17.67;10.63;;;;;;;5.60;100.00;101730.69;5056090;28;20441;-70
2022/11/14 02:30:56;;;;;;;21.63;13.25;;;;;;;5.60;100.00;101714.97;5055558;28;20268;-70
2022/11/14 02:33:21;;;;;;;17.67;11.15;;;;;;;5.62;100.00;101707.84;5054848;28;20029;-70
2022/11/14 02:35:47;;;;;;;12.23;10.57;;;;;;;5.59;100.00;101705.41;5074589;28;20111;-70
2022/11/14 02:38:12;;;;;;;18.20;10.95;;;;;;;5.60;100.00;101703.66;5039605;28;20396;-70
2022/11/14 02:40:37;;;;;;;14.68;10.00;;;;;;;5.50;100.00;101687.66;5052191;28;20032;-70
2022/11/14 02:43:03;;;;;;;19.95;12.13;;;;;;;5.61;100.00;101715.78;5056850;28;20430;-70
2022/11/14 02:45:28;;;;;;;17.73;12.20;;;;;;;5.61;100.00;101719.25;5076512;28;20032;-70
2022/11/14 02:47:53;;;;;;;16.88;11.20;;;;;;;5.62;100.00;101710.47;5074166;28;20036;-70
2022/11/14 02:50:19;;;;;;;15.38;10.93;;;;;;;5.59;100.00;101701.97;5055234;28;20032;-70
2022/11/14 02:52:44;;;;;;;17.95;9.05;;;;;;;5.61;100.00;101706.16;5057293;28;20025;-70
2022/11/14 02:55:10;;;;;;;17.27;10.52;;;;;;;5.61;100.00;101700.09;5074973;28;20128;-70
2022/11/14 02:57:35;;;;;;;24.40;12.52;;;;;;;5.61;100.00;101700.91;5075879;28;20056;-70
2022/11/14 03:00:00;;;;;;;17.27;10.38;;;;;;;5.63;100.00;101693.81;5076981;28;20036;-70
2022/11/14 03:02:26;;;;;;;17.70;11.70;;;;;;;5.68;100.00;101690.91;5060462;28;20050;-70
2022/11/14 03:04:51;;;;;;;19.52;14.18;;;;;;;5.72;100.00;101689.75;5058229;28;20029;-70
2022/11/14 03:07:17;;;;;;;13.15;9.10;;;;;;;5.76;100.00;101692.09;5057667;28;20097;-70
2022/11/14 03:09:42;;;;;;;18.45;13.35;;;;;;;5.80;100.00;101686.66;5060061;28;20232;-70
2022/11/14 03:12:08;;;;;;;19.00;11.70;;;;;;;5.82;100.00;101680.38;5077555;28;20101;-70
2022/11/14 03:14:33;;;;;;;20.35;13.55;;;;;;;5.84;100.00;101675.91;5076759;28;20404;-70
2022/11/14 03:16:59;;;;;;;21.05;12.45;;;;;;;5.88;100.00;101671.28;5076403;28;20040;-70
2022/11/14 03:19:24;;;;;;;17.63;11.02;;;;;;;5.75;100.00;101655.53;5042626;28;20075;-70
2022/11/14 03:21:49;;;;;;;21.58;12.70;;;;;;;5.75;100.00;101660.78;5078103;28;20066;-70
2022/11/14 03:24:15;;;;;;;17.58;12.63;;;;;;;5.86;100.00;101668.78;5058577;28;20055;-70
2022/11/14 03:26:40;;;;;;;27.05;16.02;;;;;;;5.73;100.00;101650.38;5076447;28;20032;-70
2022/11/14 03:29:07;;;;;;;22.70;13.95;;;;;;;5.85;100.00;101672.31;5061329;28;20032;-70
2022/11/14 03:31:32;;;;;;;18.63;12.48;;;;;;;5.88;100.00;101672.13;5076085;28;20392;-70
2022/11/14 03:33:57;;;;;;;18.50;10.93;;;;;;;5.85;100.00;101661.84;5077558;28;20035;-70
2022/11/14 03:36:23;;;;;;;18.52;11.75;;;;;;;5.89;100.00;101665.13;5058307;28;20044;-70
2022/11/14 03:38:48;;;;;;;20.90;13.07;;;;;;;5.72;100.00;101647.84;5074330;28;20033;-70
2022/11/14 03:41:13;;;;;;;17.77;11.18;;;;;;;5.76;100.00;101652.78;5060482;28;20059;-70
2022/11/14 03:43:39;;;;;;;20.98;11.10;;;;;;;5.75;100.00;101656.38;5075809;28;20026;-70
2022/11/14 03:46:04;;;;;;;24.52;16.20;;;;;;;5.74;100.00;101646.81;5060972;28;20028;-70
2022/11/14 03:48:30;;;;;;;18.13;13.68;;;;;;;5.73;100.00;101644.31;5076747;28;20024;-70
2022/11/14 03:50:56;;;;;;;26.90;13.88;;;;;;;5.75;100.00;101638.03;5075450;28;20070;-70
2022/11/14 03:53:22;;;;;;;22.98;18.40;;;;;;;5.73;100.00;101647.78;5075477;28;20020;-70
2022/11/14 03:55:47;;;;;;;27.83;14.43;;;;;;;5.74;100.00;101661.69;5076410;28;20025;-70
2022/11/14 03:58:13;;;;;;;22.60;17.33;;;;;;;5.73;100.00;101645.16;5057910;28;20034;-70
2022/11/14 04:00:38;;;;;;;22.25;12.18;;;;;;;5.74;100.00;101649.44;5075170;28;20032;-70
2022/11/14 04:03:04;;;;;;;16.42;12.57;;;;;;;5.73;100.00;101653.00;5077199;28;20104;-71
2022/11/14 04:05:30;;;;;;;23.25;13.23;;;;;;;5.63;100.00;101625.72;5074168;28;20484;-71
2022/11/14 04:07:55;;;;;;;22.40;12.95;;;;;;;5.63;100.00;101633.56;5077799;28;20048;-71
2022/11/14 04:10:21;;;;;;;27.65;13.65;;;;;;;5.78;100.00;101648.31;5043147;28;20502;-71
2022/11/14 04:12:52;;;;;;;22.88;11.82;;;;;;;5.61;100.00;101624.97;5076288;28;20078;-71
2022/11/14 04:15:18;;;;;;;15.65;10.77;;;;;;;5.74;100.00;101645.97;5044826;28;20051;-71
2022/11/14 04:17:45;;;;;;;21.10;11.50;;;;;;;5.72;100.00;101624.28;5077599;28;20040;-71
2022/11/14 04:20:11;;;;;;;19.92;11.30;;;;;;;5.72;100.00;101635.59;5077198;28;20032;-71
2022/11/14 04:22:37;;;;;;;17.77;13.48;;;;;;;5.70;100.00;101634.84;5076242;28;20033;-71
2022/11/14 04:25:03;;;;;;;20.83;14.40;;;;;;;5.69;100.00;101627.94;5060084;28;20039;-71
2022/11/14 04:27:28;;;;;;;18.77;11.30;;;;;;;5.70;100.00;101627.00;5075325;28;20058;-71
2022/11/14 04:29:54;;;;;;;15.80;10.35;;;;;;;5.74;100.00;101625.84;5075633;28;20123;-71
2022/11/14 04:32:19;;;;;;;16.13;11.13;;;;;;;5.72;100.00;101624.28;5056026;28;20165;-71
2022/11/14 04:34:44;;;;;;;14.82;10.88;;;;;;;5.62;100.00;101618.81;5074023;28;20035;-71
2022/11/14 04:37:10;;;;;;;19.70;13.38;;;;;;;5.50;100.00;101601.25;5076862;28;20119;-71
2022/11/14 04:39:35;;;;;;;14.63;11.70;;;;;;;5.55;100.00;101623.59;5056191;28;20501;-71
2022/11/14 04:42:01;;;;;;;21.00;12.55;;;;;;;5.50;100.00;101614.34;5058605;28;20074;-71
2022/11/14 04:44:26;;;;;;;21.33;10.52;;;;;;;5.53;100.00;101619.38;5057864;28;20089;-71
2022/11/14 04:46:51;;;;;;;19.33;10.82;;;;;;;5.49;100.00;101617.94;5059341;28;20510;-71
2022/11/14 04:49:16;;;;;;;24.73;13.43;;;;;;;5.48;100.00;101605.75;5056919;28;20484;-71
2022/11/14 04:51:42;;;;;;;21.13;10.75;;;;;;;5.47;100.00;101599.69;5059178;28;20033;-71
2022/11/14 04:54:07;;;;;;;18.98;12.77;;;;;;;5.46;100.00;101603.22;5075630;28;20028;-71
2022/11/14 04:56:33;;;;;;;19.02;12.05;;;;;;;5.38;100.00;101596.81;5076390;28;20032;-71
2022/11/14 04:58:58;;;;;;;18.98;11.43;;;;;;;5.41;100.00;101604.47;5055003;28;20054;-71
2022/11/14 05:01:24;;;;;;;16.35;11.48;;;;;;;5.32;100.00;101596.25;5056571;28;20028;-71
2022/11/14 05:03:49;;;;;;;18.27;11.65;;;;;;;5.24;100.00;101593.28;5073807;28;20090;-71
2022/11/14 05:06:14;;;;;;;24.67;12.25;;;;;;;5.27;100.00;101597.47;5076234;28;20024;-71
2022/11/14 05:08:40;;;;;;;25.85;16.75;;;;;;;5.25;100.00;101600.22;5075235;28;20037;-71
2022/11/14 05:11:05;;;;;;;15.80;14.25;;;;;;;5.12;100.00;101575.75;5043432;28;20040;-71
2022/11/14 05:13:31;;;;;;;18.27;10.00;;;;;;;5.21;100.00;101585.66;5055317;28;20038;-71
2022/11/14 05:16:00;;;;;;;21.08;10.40;;;;;;;5.12;100.00;101578.38;5054971;28;20399;-71
2022/11/14 05:18:26;;;;;;;21.80;11.32;;;;;;;5.19;100.00;101579.66;5074519;28;20036;-71
2022/11/14 05:20:51;;;;;;;18.80;12.68;;;;;;;5.20;100.00;101568.25;5073582;28;20028;-71
2022/11/14 05:23:21;;;;;;;19.25;12.65;;;;;;;5.26;100.00;101572.25;5075788;28;20028;-71
2022/11/14 05:25:57;;;;;;;18.90;12.47;;;;;;;5.23;100.00;101567.22;5058128;28;20031;-71
2022/11/14 05:28:22;;;;;;;19.30;10.57;;;;;;;5.15;100.00;101578.16;5076365;28;20110;-71
2022/11/14 05:30:47;;;;;;;28.45;12.13;;;;;;;5.17;100.00;101570.22;5074366;28;20213;-71
2022/11/14 05:33:13;;;;;;;19.38;13.13;;;;;;;5.18;100.00;101567.50;5076544;28;20089;-71
2022/11/14 05:35:38;;;;;;;20.52;11.23;;;;;;;5.18;100.00;101566.66;5072301;28;20026;-71
2022/11/14 05:38:03;;;;;;;21.08;13.35;;;;;;;5.15;100.00;101565.09;5072392;28;20513;-71
2022/11/14 05:40:29;;;;;;;17.80;14.27;;;;;;;5.14;100.00;101563.44;5056859;28;20485;-71
2022/11/14 05:42:55;;;;;;;18.77;13.82;;;;;;;5.12;100.00;101557.44;5075522;28;20442;-71
2022/11/14 05:45:20;;;;;;;29.70;14.57;;;;;;;5.00;100.00;101558.22;5075188;28;20116;-71
2022/11/14 05:47:46;;;;;;;19.30;12.40;;;;;;;5.00;100.00;101559.03;5057240;28;20093;-71
2022/11/14 05:50:11;;;;;;;21.95;12.75;;;;;;;4.95;100.00;101554.09;5040116;28;20476;-71
2022/11/14 05:52:36;;;;;;;20.08;11.82;;;;;;;4.80;100.00;101528.91;5057030;28;20479;-71
2022/11/14 05:55:02;;;;;;;18.55;14.40;;;;;;;4.92;100.00;101559.53;5057933;28;20036;-71
2022/11/14 05:57:27;;;;;;;18.25;11.63;;;;;;;4.93;100.00;101550.75;5039948;28;20452;-71
2022/11/14 05:59:53;;;;;;;18.30;12.32;;;;;;;5.00;100.00;101560.81;5073853;28;20407;-70
2022/11/14 06:02:18;;;;;;;20.35;11.55;;;;;;;5.01;100.00;101562.50;5023832;28;20036;-70
2022/11/14 06:04:43;;;;;;;17.88;12.00;;;;;;;4.83;100.00;101531.31;5074155;28;20035;-70
2022/11/14 06:07:09;;;;;;;19.23;13.27;;;;;;;5.00;100.00;101556.44;5071974;28;20133;-70
2022/11/14 06:09:34;;;;;;;21.00;18.80;;;;;;;4.90;100.00;101558.78;5071654;28;20028;-70
2022/11/14 06:11:59;;;;;;;17.02;10.15;;;;;;;4.93;100.00;101555.97;5070785;28;20036;-70
2022/11/14 06:14:25;;;;;;;19.50;12.45;;;;;;;4.92;100.00;101556.91;5053461;28;20040;-70
2022/11/14 06:16:50;;;;;;;12.85;10.52;;;;;;;4.94;100.00;101555.06;5064119;28;20507;-70
2022/11/14 06:19:15;;;;;;;22.27;12.35;;;;;;;4.89;100.00;101548.41;5074344;28;20535;-70
2022/11/14 06:21:41;;;;;;;20.58;12.98;;;;;;;4.90;100.00;101556.19;5052289;28;20081;-70
2022/11/14 06:24:06;;;;;;;17.83;12.32;;;;;;;4.86;100.00;101553.84;5074110;28;20519;-70
2022/11/14 06:26:32;;;;;;;19.80;13.38;;;;;;;4.78;100.00;101535.19;5039662;28;20082;-70
2022/11/14 06:28:58;;;;;;;14.35;11.80;;;;;;;4.93;100.00;101550.75;5036357;28;20443;-70
2022/11/14 06:31:24;;;;;;;14.43;9.23;;;;;;;5.00;100.00;101539.91;5068436;28;20506;-71
2022/11/14 06:33:50;;;;;;;21.27;12.52;;;;;;;4.94;100.00;101539.34;5074166;28;20028;-71
2022/11/14 06:36:15;;;;;;;26.65;12.75;;;;;;;4.88;100.00;101531.88;5036527;28;20043;-71
2022/11/14 06:38:41;;;;;;;16.33;11.48;;;;;;;5.00;100.00;101550.38;5056770;28;20039;-71
2022/11/14 06:41:12;;;;;;;27.00;13.60;;;;;;;4.97;100.00;101548.78;5075657;28;20557;-71
2022/11/14 06:43:40;;;;;;;25.05;13.85;;;;;;;4.88;100.00;101536.28;5079631;28;20047;-70
2022/11/14 06:46:07;;;;;;;17.02;11.73;;;;;;;4.86;100.00;101536.38;5039977;28;20028;-70
2022/11/14 06:48:34;;;;;;;25.38;13.00;;;;;;;4.88;100.00;101538.91;5041602;28;20035;-70
2022/11/14 06:51:00;;;;;;;29.90;10.43;;;;;;;4.93;100.00;101563.00;5060584;28;20098;-70
2022/11/14 06:53:28;;;;;;;19.85;11.68;;;;;;;4.95;100.00;101556.72;5077653;28;20170;-70
2022/11/14 06:56:14;;;;;;;16.25;11.90;;;;;;;4.90;100.00;101564.03;5072760;28;20044;-70
2022/11/14 06:58:45;;;;;;;18.85;10.73;;;;;;;4.90;100.00;101553.56;5072914;28;20025;-70
2022/11/14 07:01:13;;;;;;;14.40;10.33;;;;;;;4.89;100.00;101557.09;5056587;28;20128;-70
2022/11/14 07:03:39;;;;;;;19.90;9.70;;;;;;;4.93;100.00;101563.81;5057889;28;20336;-70
2022/11/14 07:06:06;;;;;;;21.27;11.57;;;;;;;4.80;100.00;101549.84;5055934;28;20024;-70
2022/11/14 07:08:32;;;;;;;19.95;12.90;;;;;;;4.79;100.00;101561.25;5076851;28;20040;-70
2022/11/14 07:11:06;;;;;;;28.85;17.42;;;;;;;4.73;100.00;101561.63;5079319;28;20496;-70
2022/11/14 07:13:32;;;;;;;26.80;12.98;;;;;;;4.69;100.00;101560.94;5076309;28;20423;-70
2022/11/14 07:15:58;;;;;;;15.48;11.75;;;;;;;4.65;100.00;101558.63;5076367;28;20085;-70
2022/11/14 07:18:24;;;;;;;24.85;11.95;;;;;;;4.66;100.00;101565.53;5076775;28;20548;-72
2022/11/14 07:20:55;;;;;;;16.60;10.80;;;;;;;4.51;100.00;101539.41;5058191;28;20501;-71
2022/11/14 07:23:20;;;;;;;;;;;;;;;4.66;100.00;101560.28;5077359;28;20161;-71
2022/11/14 07:25:45;;;;;;;23.75;12.27;;;;;;;4.63;100.00;101560.50;5075653;28;20396;-72
2022/11/14 07:28:11;;;;;;;14.30;8.40;;;;;;;4.63;100.00;101565.72;5058391;28;20048;-71
2022/11/14 07:30:36;;;;;;;19.23;10.27;;;;;;;4.58;100.00;101555.53;5058626;28;20550;-71
2022/11/14 07:33:02;;;;;;;16.45;11.75;;;;;;;4.62;100.00;101569.28;5059049;28;20039;-71
2022/11/14 07:35:27;;;;;;;16.13;12.23;;;;;;;4.62;100.00;101557.03;5076070;28;20028;-71
2022/11/14 07:37:52;;;;;;;31.17;13.02;;;;;;;4.51;100.00;101542.00;5074963;28;20040;-71
2022/11/14 07:40:18;;;;;;;14.32;9.30;;;;;;;4.69;100.00;101550.50;5043386;28;20138;-71
2022/11/14 07:42:43;;;;;;;17.05;12.60;;;;;;;4.60;100.00;101558.06;5058893;28;20505;-71
2022/11/14 07:45:09;;;;;;;17.50;10.88;;;;;;;4.62;100.00;101553.59;5072945;28;20033;-71
2022/11/14 07:47:35;;;;;;;25.83;11.68;;;;;;;4.58;100.00;101541.66;5058743;28;20056;-71
2022/11/14 07:50:01;;;;;;;19.83;10.63;;;;;;;4.62;100.00;101551.81;5075739;28;20024;-71
2022/11/14 07:52:26;;;;;;;23.98;11.60;;;;;;;4.64;100.00;101551.69;5057445;28;20121;-71
2022/11/14 07:54:51;;;;;;;20.23;10.48;;;;;;;4.62;100.00;101558.81;5074152;28;20032;-71
2022/11/14 07:57:17;;;;;;;22.00;11.48;;;;;;;4.57;100.00;101546.00;5041649;28;20078;-71
2022/11/14 07:59:42;;;;;;;20.95;14.15;;;;;;;4.58;100.00;101552.09;5057616;28;20534;-71
2022/11/14 08:02:13;;;;;;;32.65;17.52;;;;;;;4.58;100.00;101554.72;5074162;28;20039;-71
2022/11/14 08:04:41;;;;;;;19.00;11.30;;;;;;;4.58;100.00;101541.66;5057660;28;20027;-71
2022/11/14 08:07:07;;;;;;;11.80;8.55;;;;;;;4.69;100.00;101550.50;5041546;28;20431;-71
2022/11/14 08:09:33;;;;;;;28.00;13.75;;;;;;;4.64;100.00;101542.09;5075183;28;20024;-71
2022/11/14 08:11:58;;;;;;;12.85;9.10;;;;;;;4.74;100.00;101558.88;5057162;28;20040;-71
2022/11/14 08:14:23;;;;;;;18.98;11.80;;;;;;;4.72;100.00;101544.22;5076606;28;20040;-71
2022/11/14 08:16:49;;;;;;;21.10;12.02;;;;;;;4.77;100.00;101554.41;5040840;28;20033;-71
2022/11/14 08:19:15;;;;;;;16.23;10.43;;;;;;;4.78;100.00;101543.03;5077903;28;20035;-71
2022/11/14 08:21:41;;;;;;;22.02;13.40;;;;;;;4.77;100.00;101557.88;5076744;28;20062;-71
2022/11/14 08:24:07;;;;;;;18.00;12.50;;;;;;;4.71;100.00;101537.34;5076074;28;20515;-71
2022/11/14 08:26:32;;;;;;;19.20;12.15;;;;;;;4.73;100.00;101538.06;5057423;28;20028;-71
2022/11/14 08:28:58;;;;;;;25.23;15.02;;;;;;;4.57;100.00;101524.25;5076202;28;20032;-71
2022/11/14 08:31:24;;;;;;;19.88;14.50;;;;;;;4.52;100.00;101517.53;5057261;28;20017;-71
2022/11/14 08:33:50;;;;;;;18.10;10.60;;;;;;;4.78;100.00;101546.47;5058084;28;20429;-71
2022/11/14 08:36:16;;;;;;;22.23;11.60;;;;;;;4.98;100.00;101539.16;5078159;28;20032;-71
2022/11/14 08:38:42;;;;;;;20.75;12.35;;;;;;;5.03;100.00;101537.94;5042721;28;20024;-71
2022/11/14 08:41:07;;;;;;;21.67;12.52;;;;;;;4.86;100.00;101525.91;5074452;28;20024;-71
2022/11/14 08:43:32;;;;;;;23.25;10.57;;;;;;;4.89;100.00;101528.31;5057083;28;20506;-71
2022/11/14 08:45:59;;;;;;;19.58;11.18;;;;;;;4.92;100.00;101522.91;5076998;28;20101;-71
2022/11/14 08:48:25;;;;;;;22.27;11.77;;;;;;;4.87;100.00;101514.50;5057952;28;20020;-71
2022/11/14 08:50:51;;;;;;;20.45;11.73;;;;;;;4.91;100.00;101526.44;5074868;28;20031;-71
2022/11/14 08:53:16;;;;;;;17.65;10.80;;;;;;;4.91;100.00;101529.06;5074613;28;20025;-70
2022/11/14 08:55:48;;;;;;;25.35;9.80;;;;;;;4.94;100.00;101518.44;5056968;28;20123;-70
2022/11/14 08:58:14;;;;;;;18.50;10.63;;;;;;;4.96;100.00;101515.69;5056849;28;20044;-70
2022/11/14 09:00:39;;;;;;;23.90;11.80;;;;;;;4.99;100.00;101512.03;5075161;28;20025;-70
2022/11/14 09:03:14;;;;;;;16.88;10.25;;;;;;;5.04;100.00;101517.84;5056197;28;20039;-70
2022/11/14 09:05:41;;;;;;;14.00;8.65;;;;;;;5.06;100.00;101516.81;5042201;28;20125;-70
2022/11/14 09:08:06;;;;;;;17.15;11.55;;;;;;;5.15;100.00;101505.75;5074305;28;20057;-70
2022/11/14 09:10:32;;;;;;;18.77;11.60;;;;;;;5.12;100.00;101499.88;5075400;28;20035;-70
2022/11/14 09:12:59;;;;;;;18.90;9.90;;;;;;;5.27;100.00;101522.44;5057484;28;20025;-70
2022/11/14 09:15:28;;;;;;;16.52;10.43;;;;;;;5.07;100.00;101512.41;5074358;28;20039;-70
2022/11/14 09:17:55;;;;;;;20.00;11.15;;;;;;;5.14;100.00;101521.56;5056732;28;20043;-70
2022/11/14 09:20:22;;;;;;;18.27;11.80;;;;;;;5.08;100.00;101501.00;5058720;28;20117;-71
2022/11/14 09:22:47;;;;;;;14.50;8.88;;;;;;;5.07;100.00;101492.31;5057970;28;20455;-71
2022/11/14 09:25:12;;;;;;;15.40;10.60;;;;;;;5.10;100.00;101486.88;5057277;28;20028;-71
2022/11/14 09:27:38;;;;;;;17.88;11.48;;;;;;;5.05;100.00;101493.34;5074348;28;20032;-71
2022/11/14 09:30:04;;;;;;;22.10;10.95;;;;;;;5.06;100.00;101493.25;5074627;28;20038;-71
2022/11/14 09:32:29;;;;;;;24.23;10.43;;;;;;;5.13;100.00;101491.09;5075126;28;20034;-71
2022/11/14 09:34:55;;;;;;;19.13;9.23;;;;;;;5.15;100.00;101481.34;5055886;28;20032;-70
2022/11/14 09:37:20;;;;;;;14.38;8.98;;;;;;;5.22;100.00;101485.25;5075132;28;20433;-71
2022/11/14 09:39:45;;;;;;;19.92;10.23;;;;;;;5.17;100.00;101486.50;5057686;28;20111;-70
2022/11/14 09:42:17;;;;;;;17.48;9.32;;;;;;;5.08;100.00;101459.16;5074764;28;20028;-70
2022/11/14 09:44:52;;;;;;;16.80;9.52;;;;;;;5.32;100.00;101480.28;5073311;28;20562;-72
2022/11/14 09:47:23;;;;;;;15.18;9.15;;;;;;;5.34;100.00;101471.38;5058221;28;20050;-71
2022/11/14 09:49:53;;;;;;;18.48;10.38;;;;;;;5.39;100.00;101491.16;5074509;28;20052;-71
2022/11/14 09:52:35;;;;;;;18.25;10.77;;;;;;;5.43;100.00;101480.41;5075563;28;20029;-71
2022/11/14 09:55:12;;;;;;;22.52;10.32;;;;;;;5.46;100.00;101476.72;5074897;28;20024;-71
2022/11/14 09:57:41;;;;;;;19.08;10.13;;;;;;;5.47;100.00;101468.78;5072344;28;20375;-71
2022/11/14 10:00:15;;;;;;;19.48;9.52;;;;;;;5.46;100.00;101490.66;5073557;28;20406;-70
2022/11/14 10:02:53;;;;;;;19.63;13.05;;;;;;;5.43;100.00;101479.56;5076239;28;20013;-72
2022/11/14 10:06:14;;;;;;;20.08;10.27;;;;;;;5.43;100.00;101487.41;5075327;28;20080;-71
2022/11/14 10:08:54;;;;;;;18.23;9.30;;;;;;;5.40;100.00;101464.03;4992167;28;20125;-71
2022/11/14 10:11:28;;;;;;;12.70;8.70;;;;;;;5.47;100.00;101478.44;4993214;28;20528;-70
2022/11/14 10:13:59;;;;;;;17.75;8.65;;;;;;;5.57;100.00;101471.63;4993372;28;20045;-70
2022/11/14 10:16:36;;;;;;;19.17;8.55;;;;;;;5.70;100.00;101458.53;4993635;28;20453;-70
2022/11/14 10:19:08;;;;;;;22.35;12.13;;;;;;;5.72;100.00;101462.72;4992116;28;20096;-70
2022/11/14 10:22:01;;;;;;;17.83;9.68;;;;;;;5.66;100.00;101465.78;4992514;28;20108;-70
2022/11/14 10:24:50;;;;;;;18.55;9.45;;;;;;;5.70;100.00;101469.84;4992970;28;20125;-70
2022/11/14 10:27:24;;;;;;;17.02;8.82;;;;;;;5.69;100.00;101446.41;4993704;28;20121;-70
2022/11/14 10:30:14;;;;;;;26.20;13.55;;;;;;;5.80;100.00;101461.41;4992183;28;20032;-70
2022/11/14 10:32:49;;;;;;;19.42;10.52;;;;;;;5.80;100.00;101453.53;4992478;28;20044;-70
2022/11/14 10:35:26;;;;;;;14.90;8.10;;;;;;;5.77;100.00;101413.50;4993033;28;20037;-70
2022/11/14 10:38:01;;;;;;;16.27;9.43;;;;;;;5.92;100.00;101431.72;4993235;28;20520;-72
2022/11/14 10:40:40;;;;;;;23.60;11.48;;;;;;;5.90;100.00;101425.75;4992577;28;20030;-72
2022/11/14 10:43:39;;;;;;;20.23;9.50;;;;;;;6.06;100.00;101439.53;5005222;28;20460;-72
2022/11/14 10:46:04;;;;;;;24.65;12.82;;;;;;;6.06;100.00;101429.03;5052479;28;20516;-71
2022/11/14 10:48:37;;;;;;;18.85;10.32;;;;;;;6.17;100.00;101430.91;5072704;28;20116;-71
2022/11/14 10:51:18;;;;;;;26.55;10.93;;;;;;;6.23;100.00;101434.88;5073953;28;20032;-71
2022/11/14 10:53:49;;;;;;;17.23;9.80;;;;;;;6.15;100.00;101433.63;5073988;28;20351;-71
2022/11/14 10:56:14;;;;;;;22.33;10.25;;;;;;;6.21;100.00;101434.16;5071182;28;20113;-71
2022/11/14 10:58:40;;;;;;;18.10;10.38;;;;;;;6.16;100.00;101419.59;5054636;28;20496;-71
2022/11/14 11:01:32;;;;;;;20.52;12.82;;;;;;;6.24;100.00;101415.59;5072298;28;20025;-71
2022/11/14 11:03:57;;;;;;;;;;;;;;;6.43;100.00;101410.72;5055508;28;20035;-71
2022/11/14 11:06:27;;;;;;;14.93;8.97;;;;;;;6.65;100.00;101411.81;5072670;28;19916;-71
2022/11/14 11:11:50;;;;;;;18.00;10.38;;;;;;;6.93;100.00;101400.97;5058232;28;20106;-70
2022/11/14 11:14:17;;;;;;;16.98;9.75;;;;;;;6.86;100.00;101399.75;5074018;28;20077;-70
2022/11/14 11:16:45;;;;;;;20.60;10.18;;;;;;;6.79;100.00;101364.41;5073172;28;20480;-73